Time;durP1;ratioP1;P1;durP2;ratioP2;P2;SDS_P1;SDS_P2;PMS_P1;PMS_P2;Temp;Humidity;BMP_temperature;BMP_pressure;BME280_temperature;BME280_humidity;BME280_pressure;Samples;Min_cycle;Max_cycle;Signal;HPM_P1;HPM_P2
2021/07/03 00:00:26;;;;;;;12.67;8.90;;;;;;;18.74;55.75;96784.00;5084656;28;20192;-65
2021/07/03 00:02:51;;;;;;;10.13;8.70;;;;;;;18.72;55.88;96783.41;5096047;28;20679;-68
2021/07/03 00:05:17;;;;;;;9.13;8.17;;;;;;;18.66;56.25;96797.53;5095091;28;20750;-64
2021/07/03 00:07:43;;;;;;;10.83;8.03;;;;;;;18.62;56.34;96793.69;5096540;28;20178;-67
2021/07/03 00:10:09;;;;;;;11.43;8.20;;;;;;;18.58;56.43;96788.81;5095547;28;20530;-66
2021/07/03 00:12:34;;;;;;;12.70;8.87;;;;;;;18.62;56.93;96796.34;5093475;28;20310;-66
2021/07/03 00:15:00;;;;;;;11.40;9.10;;;;;;;18.57;56.73;96792.47;5092338;28;20427;-67
2021/07/03 00:17:26;;;;;;;13.93;9.37;;;;;;;18.55;56.98;96796.38;5085062;28;20228;-67
2021/07/03 00:19:51;;;;;;;11.60;8.60;;;;;;;18.55;57.22;96797.19;5092261;28;20664;-67
2021/07/03 00:22:17;;;;;;;10.83;8.20;;;;;;;18.54;57.36;96794.75;5092619;28;20280;-69
2021/07/03 00:24:42;;;;;;;13.53;9.80;;;;;;;18.54;57.13;96789.44;5092040;28;20185;-67
2021/07/03 00:27:08;;;;;;;10.23;8.90;;;;;;;18.52;57.25;96792.31;5084507;28;20574;-66
2021/07/03 00:29:33;;;;;;;10.93;8.60;;;;;;;18.52;57.25;96788.84;5091792;28;20254;-66
2021/07/03 00:31:59;;;;;;;12.80;7.90;;;;;;;18.54;57.02;96786.78;5092574;28;20178;-67
2021/07/03 00:34:25;;;;;;;13.80;8.43;;;;;;;18.51;56.94;96790.69;5091503;28;20208;-66
2021/07/03 00:36:51;;;;;;;11.10;8.80;;;;;;;18.37;57.61;96789.94;5091124;28;20492;-66
2021/07/03 00:39:16;;;;;;;10.80;8.57;;;;;;;18.34;57.71;96784.25;5091296;28;20198;-66
2021/07/03 00:41:42;;;;;;;10.23;8.67;;;;;;;18.04;58.79;96784.78;5090574;28;20181;-66
2021/07/03 00:44:07;;;;;;;14.27;9.20;;;;;;;17.96;58.98;96788.44;5091415;28;20216;-66
2021/07/03 00:46:33;;;;;;;11.30;8.50;;;;;;;17.96;58.73;96772.53;5091959;28;20206;-65
2021/07/03 00:48:58;;;;;;;10.73;8.93;;;;;;;18.14;58.13;96774.56;5091999;28;20193;-67
2021/07/03 00:51:24;;;;;;;10.80;8.57;;;;;;;18.15;58.28;96784.13;5095426;28;20233;-67
2021/07/03 00:53:50;;;;;;;11.13;8.00;;;;;;;18.14;58.28;96784.34;5092175;28;20174;-66
2021/07/03 00:56:15;;;;;;;9.70;8.00;;;;;;;18.12;58.07;96784.56;5090529;28;20767;-68
2021/07/03 00:58:41;;;;;;;9.37;8.37;;;;;;;18.13;58.23;96782.72;5085746;28;20185;-67
2021/07/03 01:01:07;;;;;;;9.87;7.47;;;;;;;18.16;57.95;96777.78;5091835;28;20675;-67
2021/07/03 01:03:32;;;;;;;9.17;8.00;;;;;;;18.07;58.44;96785.19;5090945;28;20213;-66
2021/07/03 01:05:58;;;;;;;10.97;8.20;;;;;;;17.99;58.62;96782.75;5091253;28;20211;-66
2021/07/03 01:08:23;;;;;;;12.70;9.40;;;;;;;17.85;58.88;96787.28;5091306;28;20303;-65
2021/07/03 01:10:49;;;;;;;10.00;8.90;;;;;;;17.87;58.74;96779.94;5091078;28;20529;-66
2021/07/03 01:13:15;;;;;;;10.40;7.73;;;;;;;17.93;58.47;96778.28;5090808;28;20181;-66
2021/07/03 01:15:40;;;;;;;8.83;7.97;;;;;;;17.97;58.32;96784.81;5091165;28;20201;-67
2021/07/03 01:18:06;;;;;;;10.33;8.50;;;;;;;17.94;58.24;96778.06;5091223;28;20189;-67
2021/07/03 01:20:31;;;;;;;9.13;7.90;;;;;;;17.91;58.48;96769.72;5090760;28;20528;-66
2021/07/03 01:22:57;;;;;;;13.37;9.63;;;;;;;17.89;58.51;96771.78;5090941;28;20209;-68
2021/07/03 01:25:24;;;;;;;13.30;8.67;;;;;;;17.89;58.57;96772.59;5090612;28;20667;-67
2021/07/03 01:28:16;;;;;;;11.73;8.37;;;;;;;17.83;58.90;96770.78;5083358;28;20196;-67
2021/07/03 01:30:42;;;;;;;11.70;8.87;;;;;;;17.86;58.56;96764.22;5090411;28;20471;-66
2021/07/03 01:33:07;;;;;;;13.03;9.97;;;;;;;17.81;58.69;96767.50;5091161;28;21063;-67
2021/07/03 01:35:34;;;;;;;12.60;9.83;;;;;;;17.71;59.28;96769.78;5090384;28;20193;-67
2021/07/03 01:38:00;;;;;;;13.03;10.07;;;;;;;17.76;58.89;96770.00;5090598;28;20209;-65
2021/07/03 01:40:25;;;;;;;12.67;9.30;;;;;;;17.81;58.64;96763.03;5081054;28;20470;-65
2021/07/03 01:42:51;;;;;;;12.07;10.23;;;;;;;17.79;58.65;96761.59;5090831;28;20202;-66
2021/07/03 01:45:17;;;;;;;17.17;10.53;;;;;;;17.81;58.51;96767.50;5090219;28;20182;-68
2021/07/03 01:47:49;;;;;;;13.13;10.50;;;;;;;17.80;58.58;96765.88;5093452;28;20423;-67
2021/07/03 01:50:15;;;;;;;10.80;8.50;;;;;;;17.79;58.65;96772.19;5094562;28;20181;-67
2021/07/03 01:52:41;;;;;;;13.60;10.33;;;;;;;17.52;59.50;96772.28;5095161;28;20437;-66
2021/07/03 01:55:09;;;;;;;13.33;10.03;;;;;;;17.25;60.78;96779.44;5094098;28;20945;-66
2021/07/03 01:57:35;;;;;;;11.63;9.07;;;;;;;17.23;60.90;96773.53;5087280;28;20272;-66
2021/07/03 02:00:01;;;;;;;14.73;9.03;;;;;;;17.33;60.25;96774.75;5093422;28;20451;-67
2021/07/03 02:02:27;;;;;;;9.47;8.00;;;;;;;17.48;59.59;96771.06;5094465;28;20450;-65
2021/07/03 02:04:52;;;;;;;10.50;7.90;;;;;;;17.54;59.58;96770.22;5094072;28;20423;-67
2021/07/03 02:07:18;;;;;;;8.43;7.57;;;;;;;17.57;59.47;96769.81;5094360;28;20220;-66
2021/07/03 02:09:43;;;;;;;11.00;9.00;;;;;;;17.53;59.66;96776.53;5092914;28;20185;-66
2021/07/03 02:12:09;;;;;;;13.17;8.43;;;;;;;17.56;59.07;96773.50;5095780;28;20185;-66
2021/07/03 02:14:35;;;;;;;9.50;7.80;;;;;;;17.55;59.33;96771.06;5095615;28;20653;-66
2021/07/03 02:17:00;;;;;;;9.80;8.13;;;;;;;17.52;59.23;96761.66;5094897;28;20202;-67
2021/07/03 02:19:26;;;;;;;13.20;8.67;;;;;;;17.45;59.31;96768.84;5094550;28;20181;-67
2021/07/03 02:21:51;;;;;;;11.80;8.10;;;;;;;17.37;59.94;96763.75;5094164;28;20664;-68
2021/07/03 02:24:17;;;;;;;12.30;9.60;;;;;;;17.12;60.68;96756.47;5093929;28;20186;-66
2021/07/03 02:26:43;;;;;;;10.27;9.27;;;;;;;17.09;60.88;96759.50;5089541;28;20728;-66
2021/07/03 02:29:09;;;;;;;9.10;8.20;;;;;;;17.25;60.26;96758.25;5094908;28;20185;-68
2021/07/03 02:31:34;;;;;;;10.47;8.67;;;;;;;17.28;60.20;96755.22;5096210;28;20428;-67
2021/07/03 02:34:00;;;;;;;9.90;8.30;;;;;;;17.38;59.97;96754.81;5085574;28;20186;-67
2021/07/03 02:36:26;;;;;;;13.43;8.87;;;;;;;17.47;59.53;96764.16;5085373;28;20197;-67
2021/07/03 02:38:51;;;;;;;10.83;8.67;;;;;;;17.47;59.56;96754.34;5093180;28;20199;-67
2021/07/03 02:41:17;;;;;;;9.13;8.10;;;;;;;17.50;59.47;96753.13;5093727;28;20181;-65
2021/07/03 02:43:43;;;;;;;12.73;9.53;;;;;;;17.51;59.44;96760.06;5093562;28;20197;-65
2021/07/03 02:46:08;;;;;;;10.43;8.60;;;;;;;17.48;59.40;96760.47;5093365;28;20205;-67
2021/07/03 02:48:34;;;;;;;12.30;9.27;;;;;;;17.47;59.47;96759.66;5093548;28;20205;-67
2021/07/03 02:50:59;;;;;;;9.50;8.50;;;;;;;17.44;59.56;96749.50;5093639;28;20181;-67
2021/07/03 02:53:25;;;;;;;12.13;9.00;;;;;;;17.45;59.37;96755.59;5091479;28;20193;-67
2021/07/03 02:55:51;;;;;;;9.77;8.60;;;;;;;17.42;59.44;96756.00;5093200;28;20194;-65
2021/07/03 02:58:16;;;;;;;13.73;9.33;;;;;;;17.39;59.47;96764.38;5083636;28;20327;-66
2021/07/03 03:00:42;;;;;;;11.30;8.70;;;;;;;17.39;59.79;96772.31;5095642;28;20430;-66
2021/07/03 03:03:08;;;;;;;9.70;8.80;;;;;;;17.36;59.79;96773.53;5091865;28;20326;-67
2021/07/03 03:05:33;;;;;;;11.90;8.67;;;;;;;17.36;60.01;96773.53;5092791;28;20251;-68
2021/07/03 03:07:59;;;;;;;10.20;7.57;;;;;;;17.33;59.90;96766.81;5093080;28;20186;-65
2021/07/03 03:10:24;;;;;;;12.37;8.63;;;;;;;17.27;60.15;96770.28;5093093;28;20180;-67
2021/07/03 03:12:50;;;;;;;11.27;8.93;;;;;;;17.25;60.40;96766.22;5093441;28;20636;-66
2021/07/03 03:15:16;;;;;;;10.93;8.67;;;;;;;17.25;60.23;96761.75;5092606;28;20177;-67
2021/07/03 03:17:42;;;;;;;11.90;8.67;;;;;;;17.24;60.38;96765.41;5093027;28;20178;-67
2021/07/03 03:20:10;;;;;;;9.90;8.90;;;;;;;17.24;60.54;96756.63;5091447;28;20423;-66
2021/07/03 03:22:36;;;;;;;10.17;9.07;;;;;;;17.22;60.38;96756.03;5092538;28;20253;-67
2021/07/03 03:25:03;;;;;;;11.23;9.10;;;;;;;17.20;60.64;96754.38;5092709;28;20424;-67
2021/07/03 03:27:29;;;;;;;11.57;9.27;;;;;;;17.17;60.82;96754.00;5085321;28;20522;-67
2021/07/03 03:29:54;;;;;;;9.37;8.20;;;;;;;17.13;61.22;96758.88;5092880;28;20511;-66
2021/07/03 03:32:20;;;;;;;10.70;8.70;;;;;;;17.16;61.07;96750.53;5092838;28;20185;-67
2021/07/03 03:34:45;;;;;;;14.53;9.03;;;;;;;17.19;60.78;96751.97;5087851;28;20330;-65
2021/07/03 03:37:11;;;;;;;12.17;9.10;;;;;;;17.18;60.93;96752.97;5091935;28;20205;-66
2021/07/03 03:39:37;;;;;;;10.53;8.80;;;;;;;17.17;61.04;96754.81;5092324;28;20197;-67
2021/07/03 03:42:03;;;;;;;9.57;8.57;;;;;;;17.13;61.05;96758.09;5092247;28;20258;-66
2021/07/03 03:44:29;;;;;;;10.23;8.20;;;;;;;17.15;61.10;96750.72;5085550;28;20180;-67
2021/07/03 03:46:54;;;;;;;10.27;8.50;;;;;;;17.14;60.95;96754.41;5091841;28;20439;-67
2021/07/03 03:49:21;;;;;;;11.17;9.07;;;;;;;17.07;61.40;96749.13;5092160;28;20190;-66
2021/07/03 03:51:47;;;;;;;11.80;9.30;;;;;;;17.08;61.24;96745.44;5092354;28;20250;-66
2021/07/03 03:54:13;;;;;;;9.43;8.10;;;;;;;17.11;61.04;96750.34;5091629;28;20415;-67
2021/07/03 03:56:38;;;;;;;16.83;9.20;;;;;;;17.08;61.35;96749.94;5092320;28;20462;-67
2021/07/03 03:59:04;;;;;;;13.73;9.00;;;;;;;17.02;61.44;96756.88;5091701;28;20228;-67
2021/07/03 04:01:30;;;;;;;10.60;9.30;;;;;;;17.02;61.35;96747.06;5091835;28;20182;-67
2021/07/03 04:03:55;;;;;;;11.00;9.00;;;;;;;17.04;61.56;96745.03;5091837;28;20202;-67
2021/07/03 04:06:21;;;;;;;10.53;8.50;;;;;;;17.06;61.68;96751.97;5091784;28;20205;-66
2021/07/03 04:08:46;;;;;;;11.63;8.83;;;;;;;17.13;61.29;96748.31;5091697;28;20186;-67
2021/07/03 04:11:12;;;;;;;12.80;8.77;;;;;;;17.16;61.71;96752.38;5091417;28;20186;-67
2021/07/03 04:13:38;;;;;;;10.57;8.90;;;;;;;17.16;61.44;96755.00;5089218;28;20182;-66
2021/07/03 04:16:04;;;;;;;10.90;9.00;;;;;;;17.21;61.01;96763.16;5088141;28;20228;-67
2021/07/03 04:18:29;;;;;;;11.50;9.37;;;;;;;17.31;60.80;96766.19;5091824;28;20178;-68
2021/07/03 04:20:55;;;;;;;11.20;7.87;;;;;;;17.38;60.60;96760.91;5091735;28;20182;-67
2021/07/03 04:23:20;;;;;;;9.33;8.07;;;;;;;17.43;60.65;96753.16;5091088;28;20225;-66
2021/07/03 04:25:46;;;;;;;10.77;8.20;;;;;;;17.52;60.59;96766.97;5091604;28;20214;-65
2021/07/03 04:28:11;;;;;;;9.70;8.37;;;;;;;17.53;59.59;96763.31;5091287;28;20188;-66
2021/07/03 04:30:37;;;;;;;9.47;8.43;;;;;;;17.70;59.47;96760.22;5091650;28;20197;-65
2021/07/03 04:33:03;;;;;;;11.10;8.60;;;;;;;17.77;59.00;96763.63;5091956;28;20178;-65
2021/07/03 04:35:28;;;;;;;10.93;8.10;;;;;;;17.88;58.61;96757.72;5093919;28;20291;-66
2021/07/03 04:37:54;;;;;;;9.70;8.00;;;;;;;18.07;57.82;96752.56;5094714;28;20246;-66
2021/07/03 04:40:20;;;;;;;9.70;7.83;;;;;;;18.24;57.42;96753.72;5091218;28;20202;-67
2021/07/03 04:42:45;;;;;;;9.43;7.80;;;;;;;18.34;56.99;96753.22;5092040;28;20200;-67
2021/07/03 04:45:11;;;;;;;9.43;7.73;;;;;;;18.46;56.84;96745.41;5085354;28;20250;-66
2021/07/03 04:47:36;;;;;;;8.97;8.07;;;;;;;18.57;57.10;96752.69;5091735;28;20181;-65
2021/07/03 04:50:04;;;;;;;9.50;8.43;;;;;;;18.54;57.33;96752.31;5091232;28;20272;-67
2021/07/03 04:52:29;;;;;;;10.27;8.80;;;;;;;18.75;56.91;96747.66;5091984;28;20174;-66
2021/07/03 04:54:55;;;;;;;12.53;8.33;;;;;;;18.85;56.45;96751.47;5091006;28;20502;-66
2021/07/03 04:57:21;;;;;;;9.17;7.67;;;;;;;18.90;56.86;96752.66;5090810;28;20212;-67
2021/07/03 04:59:46;;;;;;;10.30;8.53;;;;;;;19.03;56.27;96757.88;5089577;28;20256;-66
2021/07/03 05:02:13;;;;;;;10.70;8.00;;;;;;;19.12;56.05;96751.28;5092478;28;20284;-66
2021/07/03 05:04:41;;;;;;;8.40;7.50;;;;;;;19.19;55.80;96749.38;5097445;28;20181;-66
2021/07/03 05:07:06;;;;;;;8.80;7.40;;;;;;;19.30;55.45;96753.16;5090934;28;20439;-66
2021/07/03 05:09:32;;;;;;;10.20;6.93;;;;;;;19.44;54.97;96756.47;5091157;28;20500;-66
2021/07/03 05:11:58;;;;;;;8.37;7.30;;;;;;;19.53;54.55;96750.91;5091277;28;20200;-67
2021/07/03 05:14:24;;;;;;;9.73;8.10;;;;;;;19.60;54.29;96756.94;5085146;28;20180;-68
2021/07/03 05:16:49;;;;;;;8.70;7.20;;;;;;;19.74;54.23;96749.63;5089967;28;20663;-66
2021/07/03 05:19:15;;;;;;;8.93;6.90;;;;;;;19.78;53.11;96746.28;5090940;28;20184;-67
2021/07/03 05:21:41;;;;;;;8.40;7.50;;;;;;;19.88;53.84;96739.69;5090639;28;20173;-70
2021/07/03 05:24:07;;;;;;;9.43;7.50;;;;;;;19.97;53.32;96743.66;5094729;28;20415;-66
2021/07/03 05:26:33;;;;;;;9.60;8.00;;;;;;;19.89;53.43;96739.47;5095215;28;20213;-67
2021/07/03 05:28:58;;;;;;;13.70;8.30;;;;;;;19.96;53.26;96736.72;5094843;28;20182;-67
2021/07/03 05:31:24;;;;;;;9.80;8.00;;;;;;;19.92;53.25;96735.53;5095229;28;20173;-66
2021/07/03 05:33:50;;;;;;;8.07;7.27;;;;;;;19.87;53.36;96738.06;5094840;28;20181;-67
2021/07/03 05:36:15;;;;;;;8.67;7.47;;;;;;;20.29;52.50;96745.31;5094959;28;20229;-66
2021/07/03 05:38:42;;;;;;;9.13;7.23;;;;;;;20.46;51.89;96748.97;5093320;28;20519;-67
2021/07/03 05:41:11;;;;;;;8.90;7.47;;;;;;;20.57;51.29;96736.72;5094738;28;20188;-66
2021/07/03 05:43:37;;;;;;;10.73;6.43;;;;;;;20.80;51.10;96730.66;5089321;28;20476;-67
2021/07/03 05:46:04;;;;;;;9.97;8.00;;;;;;;21.03;50.42;96739.72;5091835;28;20477;-67
2021/07/03 05:48:29;;;;;;;7.47;6.77;;;;;;;21.21;50.24;96730.78;5094839;28;20411;-66
2021/07/03 05:50:55;;;;;;;8.93;6.23;;;;;;;21.38;49.51;96735.44;5093351;28;20442;-66
2021/07/03 05:53:20;;;;;;;7.80;6.70;;;;;;;21.44;49.04;96729.16;5094529;28;20184;-66
2021/07/03 05:55:46;;;;;;;8.57;6.83;;;;;;;21.48;49.33;96735.66;5094282;28;20229;-66
2021/07/03 05:58:11;;;;;;;7.77;6.60;;;;;;;21.41;48.56;96734.97;5087666;28;20189;-67
2021/07/03 06:00:37;;;;;;;8.33;7.33;;;;;;;21.41;48.09;96735.75;5094865;28;20205;-65
2021/07/03 06:03:03;;;;;;;16.73;6.83;;;;;;;21.65;48.23;96745.63;5094685;28;20211;-66
2021/07/03 06:05:28;;;;;;;9.60;6.60;;;;;;;21.87;48.07;96733.28;5093379;28;20261;-65
2021/07/03 06:07:54;;;;;;;7.27;6.47;;;;;;;22.01;46.95;96733.81;5095149;28;20177;-68
2021/07/03 06:10:19;;;;;;;9.60;6.83;;;;;;;22.04;46.77;96724.53;5094626;28;20275;-65
2021/07/03 06:12:45;;;;;;;9.60;7.10;;;;;;;22.30;46.47;96725.03;5094672;28;20539;-66
2021/07/03 06:15:11;;;;;;;8.20;6.57;;;;;;;22.31;45.32;96726.59;5094274;28;20209;-67
2021/07/03 06:17:37;;;;;;;7.23;6.53;;;;;;;22.35;44.84;96725.09;5094827;28;20181;-67
2021/07/03 06:20:03;;;;;;;7.70;6.50;;;;;;;22.21;44.80;96728.06;5093313;28;20764;-67
2021/07/03 06:22:29;;;;;;;7.33;6.60;;;;;;;22.95;43.62;96720.22;5094362;28;20657;-67
2021/07/03 06:24:55;;;;;;;8.00;5.97;;;;;;;23.24;43.15;96707.63;5094143;28;20422;-67
2021/07/03 06:27:20;;;;;;;8.23;6.43;;;;;;;23.35;43.15;96721.13;5088601;28;20827;-66
2021/07/03 06:29:46;;;;;;;8.97;6.60;;;;;;;23.50;42.86;96715.97;5097639;28;20181;-65
2021/07/03 06:32:11;;;;;;;13.80;9.10;;;;;;;23.56;42.48;96712.31;5098213;28;20178;-66
2021/07/03 06:34:38;;;;;;;7.90;6.43;;;;;;;23.45;42.50;96714.03;5096355;28;20181;-67
2021/07/03 06:37:03;;;;;;;7.43;6.10;;;;;;;23.19;43.01;96715.50;5094353;28;20209;-65
2021/07/03 06:39:29;;;;;;;8.20;6.50;;;;;;;23.83;41.69;96719.59;5094941;28;21162;-66
2021/07/03 06:41:55;;;;;;;22.03;13.67;;;;;;;23.80;41.95;96720.06;5095144;28;20423;-66
2021/07/03 06:44:20;;;;;;;9.23;6.73;;;;;;;24.14;41.29;96719.16;5098539;28;20593;-65
2021/07/03 06:46:46;;;;;;;8.77;6.50;;;;;;;24.21;41.01;96725.94;5098797;28;20198;-67
2021/07/03 06:49:13;;;;;;;6.50;5.90;;;;;;;24.34;39.48;96714.00;5096961;28;20544;-66
2021/07/03 06:51:39;;;;;;;7.03;5.53;;;;;;;24.21;40.60;96719.75;5094229;28;20650;-65
2021/07/03 06:54:05;;;;;;;9.20;6.37;;;;;;;24.20;40.46;96718.13;5094563;28;20412;-65
2021/07/03 06:56:31;;;;;;;11.60;5.90;;;;;;;24.47;39.64;96728.84;5094537;28;20196;-67
2021/07/03 06:58:57;;;;;;;7.20;5.60;;;;;;;24.47;39.24;96733.38;5098287;28;20420;-67
2021/07/03 07:01:22;;;;;;;7.60;5.90;;;;;;;24.55;39.88;96730.28;5093765;28;20694;-66
2021/07/03 07:03:48;;;;;;;6.13;5.30;;;;;;;24.62;39.73;96730.84;5092936;28;20205;-66
2021/07/03 07:06:13;;;;;;;8.17;7.07;;;;;;;24.48;40.03;96727.78;5092710;28;20216;-66
2021/07/03 07:08:39;;;;;;;6.37;5.70;;;;;;;24.88;39.49;96724.94;5093988;28;20196;-68
2021/07/03 07:11:05;;;;;;;8.03;5.80;;;;;;;25.01;39.29;96727.19;5093532;28;20186;-66
2021/07/03 07:13:30;;;;;;;6.77;6.17;;;;;;;25.06;38.43;96723.72;5092449;28;20696;-65
2021/07/03 07:15:56;;;;;;;6.13;5.53;;;;;;;24.97;38.63;96724.19;5094057;28;20202;-66
2021/07/03 07:18:22;;;;;;;9.40;7.30;;;;;;;25.23;38.46;96723.56;5093721;28;20193;-65
2021/07/03 07:20:48;;;;;;;7.13;5.73;;;;;;;25.54;38.12;96721.91;5093191;28;20185;-67
2021/07/03 07:23:14;;;;;;;7.43;5.30;;;;;;;25.44;37.90;96713.81;5092858;28;20204;-66
2021/07/03 07:25:39;;;;;;;7.50;5.37;;;;;;;25.17;37.70;96719.22;5092507;28;20215;-66
2021/07/03 07:28:05;;;;;;;10.67;5.77;;;;;;;25.13;38.04;96722.44;5088495;28;20419;-65
2021/07/03 07:30:31;;;;;;;7.83;5.60;;;;;;;25.45;37.63;96713.53;5092862;28;20247;-65
2021/07/03 07:32:56;;;;;;;9.13;5.80;;;;;;;25.05;39.29;96720.22;5093078;28;20178;-66
2021/07/03 07:35:22;;;;;;;6.23;5.63;;;;;;;25.48;38.32;96709.53;5092306;28;20819;-67
2021/07/03 07:37:48;;;;;;;6.70;5.90;;;;;;;25.43;37.88;96712.19;5092459;28;20193;-66
2021/07/03 07:40:17;;;;;;;9.10;6.03;;;;;;;25.67;37.84;96706.41;5092381;28;20189;-66
2021/07/03 07:42:43;;;;;;;6.20;5.10;;;;;;;25.60;37.54;96704.75;5091273;28;20992;-67
2021/07/03 07:45:10;;;;;;;9.30;6.53;;;;;;;25.81;38.30;96698.66;5091837;28;20420;-68
2021/07/03 07:47:36;;;;;;;6.17;5.57;;;;;;;25.71;38.45;96700.25;5091062;28;20224;-68
2021/07/03 07:50:03;;;;;;;6.03;5.43;;;;;;;26.13;37.32;96697.72;5092203;28;20543;-66
2021/07/03 07:52:28;;;;;;;6.53;5.87;;;;;;;26.32;36.26;96695.34;5092178;28;20416;-65
2021/07/03 07:54:54;;;;;;;6.70;5.30;;;;;;;26.22;36.79;96693.44;5092088;28;20534;-67
2021/07/03 07:57:21;;;;;;;9.97;6.50;;;;;;;26.13;37.52;96698.53;5087157;28;20212;-67
2021/07/03 07:59:48;;;;;;;8.77;5.43;;;;;;;26.32;36.13;96695.34;5092637;28;20594;-67
2021/07/03 08:02:13;;;;;;;15.00;6.07;;;;;;;26.54;36.33;96692.38;5092281;28;20468;-66
2021/07/03 08:04:39;;;;;;;7.80;5.70;;;;;;;26.49;35.26;96690.50;5090462;28;20436;-66
2021/07/03 08:07:04;;;;;;;8.50;5.20;;;;;;;26.28;35.69;96684.31;5091396;28;20651;-66
2021/07/03 08:09:30;;;;;;;5.60;5.10;;;;;;;26.41;34.83;96677.63;5091949;28;20182;-67
2021/07/03 08:11:56;;;;;;;6.50;5.70;;;;;;;26.01;36.39;96674.59;5091775;28;20189;-64
2021/07/03 08:14:21;;;;;;;6.90;6.20;;;;;;;26.45;36.67;96676.03;5091300;28;20197;-67
2021/07/03 08:16:47;;;;;;;7.00;5.80;;;;;;;26.31;36.77;96664.19;5091389;28;20339;-65
2021/07/03 08:19:12;;;;;;;6.20;5.60;;;;;;;26.72;34.16;96677.59;5091496;28;20240;-68
2021/07/03 08:21:38;;;;;;;6.27;5.67;;;;;;;26.51;35.80;96683.00;5091581;28;20188;-66
2021/07/03 08:24:04;;;;;;;7.23;5.80;;;;;;;26.40;35.68;96684.06;5091205;28;20663;-66
2021/07/03 08:26:29;;;;;;;7.73;6.77;;;;;;;26.65;36.16;96683.25;5090971;28;20205;-66
2021/07/03 08:28:55;;;;;;;7.00;6.17;;;;;;;27.04;34.63;96673.84;5087511;28;20610;-65
2021/07/03 08:31:21;;;;;;;6.03;5.43;;;;;;;27.21;34.79;96680.81;5091238;28;20589;-66
2021/07/03 08:33:46;;;;;;;7.07;6.37;;;;;;;27.32;33.81;96668.94;5072606;28;20180;-66
2021/07/03 08:36:12;;;;;;;7.10;5.93;;;;;;;27.14;33.63;96681.09;5072771;28;20205;-66
2021/07/03 08:38:37;;;;;;;7.23;5.63;;;;;;;26.86;34.45;96682.47;5090405;28;21019;-66
2021/07/03 08:41:03;;;;;;;7.30;5.20;;;;;;;27.09;32.99;96681.91;5091103;28;20185;-66
2021/07/03 08:43:29;;;;;;;5.23;4.50;;;;;;;27.01;33.73;96685.16;5091060;28;20213;-66
2021/07/03 08:45:56;;;;;;;6.20;5.30;;;;;;;27.19;33.16;96680.28;5091338;28;20205;-67
2021/07/03 08:48:22;;;;;;;7.93;5.50;;;;;;;27.53;32.53;96685.03;5091288;28;20234;-66
2021/07/03 08:50:48;;;;;;;6.80;4.90;;;;;;;27.26;32.71;96687.00;5091075;28;20419;-67
2021/07/03 08:53:13;;;;;;;6.37;5.00;;;;;;;27.58;31.65;96679.66;5090507;28;20185;-67
2021/07/03 08:55:39;;;;;;;5.90;5.30;;;;;;;28.09;31.46;96680.53;5090955;28;20206;-66
2021/07/03 08:58:06;;;;;;;5.87;4.90;;;;;;;28.26;31.18;96675.53;5086112;28;20193;-67
2021/07/03 09:00:37;;;;;;;7.50;5.43;;;;;;;28.02;32.15;96681.59;5091302;28;20200;-66
2021/07/03 09:03:17;;;;;;;7.07;5.37;;;;;;;27.81;32.82;96677.41;5099728;28;20807;-66
2021/07/03 09:05:50;;;;;;;6.53;5.73;;;;;;;27.26;34.14;96680.78;5089917;28;20439;-66
2021/07/03 09:08:16;;;;;;;6.50;5.80;;;;;;;27.22;34.37;96674.38;5091639;28;20420;-67
2021/07/03 09:10:42;;;;;;;6.67;5.10;;;;;;;27.54;34.04;96673.22;5091610;28;20431;-67
2021/07/03 09:13:08;;;;;;;7.37;5.80;;;;;;;27.23;34.10;96668.69;5091177;28;20181;-65
2021/07/03 09:15:36;;;;;;;5.63;4.90;;;;;;;27.47;33.54;96665.44;5091018;28;20212;-66
2021/07/03 09:18:05;;;;;;;8.03;5.33;;;;;;;27.39;33.65;96661.38;5091185;28;20436;-65
2021/07/03 09:20:39;;;;;;;7.10;5.00;;;;;;;27.86;33.58;96661.22;5091557;28;20423;-67
2021/07/03 09:23:04;;;;;;;6.07;5.20;;;;;;;28.29;31.78;96658.81;5091398;28;20455;-67
2021/07/03 09:25:30;;;;;;;7.90;5.40;;;;;;;27.91;32.74;96647.72;5090972;28;20848;-65
2021/07/03 09:28:02;;;;;;;7.03;4.57;;;;;;;28.44;31.73;96654.41;5086533;28;20707;-65
2021/07/03 09:30:28;;;;;;;5.93;5.40;;;;;;;28.48;32.18;96650.88;5089779;28;20843;-65
2021/07/03 09:32:54;;;;;;;6.10;5.17;;;;;;;27.83;32.84;96648.31;5091326;28;20436;-67
2021/07/03 09:35:20;;;;;;;7.33;5.70;;;;;;;28.05;32.71;96658.69;5073300;28;20616;-67
2021/07/03 09:37:48;;;;;;;5.97;5.47;;;;;;;28.62;30.86;96661.78;5091881;28;20545;-66
2021/07/03 09:40:15;;;;;;;5.97;5.20;;;;;;;28.85;30.67;96648.69;5090609;28;20564;-67
2021/07/03 09:42:41;;;;;;;5.63;5.10;;;;;;;28.45;30.97;96647.94;5092011;28;20447;-67
2021/07/03 09:45:08;;;;;;;6.60;4.90;;;;;;;28.34;31.03;96648.03;5089940;28;20423;-67
2021/07/03 09:47:34;;;;;;;8.10;7.10;;;;;;;28.64;31.44;96638.06;5092038;28;20543;-66
2021/07/03 09:50:07;;;;;;;6.50;5.00;;;;;;;29.22;30.03;96631.06;5090744;28;20456;-66
2021/07/03 09:52:35;;;;;;;6.63;4.60;;;;;;;28.99;30.12;96626.44;5085115;28;20216;-66
2021/07/03 09:55:02;;;;;;;5.67;5.07;;;;;;;28.84;31.28;96625.53;5092419;28;20446;-65
2021/07/03 09:57:27;;;;;;;5.40;4.90;;;;;;;29.04;30.68;96626.41;5092005;28;20439;-66
2021/07/03 09:59:53;;;;;;;8.80;4.43;;;;;;;29.45;28.99;96633.22;5092490;28;20534;-66
2021/07/03 10:02:19;;;;;;;5.17;4.67;;;;;;;29.41;29.43;96627.63;5092364;28;20202;-66
2021/07/03 10:04:44;;;;;;;6.33;5.73;;;;;;;28.54;31.23;96637.38;5092390;28;20613;-66
2021/07/03 10:07:22;;;;;;;12.33;6.20;;;;;;;29.29;30.44;96630.72;5093697;28;20686;-66
2021/07/03 10:09:55;;;;;;;11.23;5.70;;;;;;;29.62;30.15;96628.16;5101144;28;20604;-65
2021/07/03 10:12:27;;;;;;;7.43;6.00;;;;;;;29.59;30.26;96628.75;5101426;28;20423;-66
2021/07/03 10:14:53;;;;;;;6.53;5.93;;;;;;;29.31;31.06;96622.31;5101898;28;20946;-66
2021/07/03 10:17:31;;;;;;;8.07;5.37;;;;;;;29.27;30.60;96622.88;5098909;28;20435;-65
2021/07/03 10:19:57;;;;;;;5.20;4.70;;;;;;;29.26;30.35;96615.88;5100562;28;20177;-66
2021/07/03 10:22:33;;;;;;;8.27;5.90;;;;;;;28.82;30.91;96616.91;5100006;28;20486;-66
2021/07/03 10:25:11;;;;;;;10.47;8.60;;;;;;;29.42;30.34;96613.81;5099773;28;20717;-64
2021/07/03 10:27:49;;;;;;;6.40;5.07;;;;;;;28.79;30.90;96602.13;5093641;28;20454;-67
2021/07/03 10:30:27;;;;;;;4.80;4.30;;;;;;;28.66;31.25;96602.75;5095957;28;20431;-66
2021/07/03 10:32:56;;;;;;;4.80;4.40;;;;;;;29.34;29.27;96600.19;5094828;28;20488;-66
2021/07/03 10:35:22;;;;;;;5.27;4.60;;;;;;;29.21;29.50;96601.66;5095680;28;20416;-67
2021/07/03 10:37:48;;;;;;;4.87;4.47;;;;;;;29.45;29.11;96604.38;5095716;28;20415;-67
2021/07/03 10:40:27;;;;;;;7.03;4.90;;;;;;;30.09;28.51;96589.72;5094208;28;20435;-65
2021/07/03 10:42:54;;;;;;;4.90;4.50;;;;;;;30.11;28.59;96588.38;5095099;28;20522;-65
2021/07/03 10:45:23;;;;;;;4.27;3.97;;;;;;;30.30;27.76;96587.50;5093147;28;20878;-66
2021/07/03 10:47:53;;;;;;;5.20;4.67;;;;;;;29.38;29.60;96595.81;5093971;28;20423;-66
2021/07/03 10:50:23;;;;;;;5.03;4.53;;;;;;;29.49;29.36;96589.19;5094989;28;20434;-66
2021/07/03 10:52:49;;;;;;;4.20;3.77;;;;;;;29.57;28.44;96593.13;5095501;28;20481;-66
2021/07/03 10:55:31;;;;;;;4.60;4.20;;;;;;;29.89;27.91;96578.91;5095689;28;20427;-67
2021/07/03 10:57:59;;;;;;;5.00;4.60;;;;;;;30.36;27.86;96580.94;5096629;28;20465;-68
2021/07/03 11:00:25;;;;;;;4.70;4.30;;;;;;;30.03;27.80;96583.59;5103299;28;20427;-67
2021/07/03 11:02:51;;;;;;;6.00;4.27;;;;;;;30.09;28.22;96582.44;5096754;28;20798;-65
2021/07/03 11:05:17;;;;;;;6.33;4.10;;;;;;;30.46;27.29;96580.75;5095296;28;20185;-65
2021/07/03 11:07:46;;;;;;;4.20;3.90;;;;;;;30.48;27.52;96578.56;5093542;28;20428;-67
2021/07/03 11:10:14;;;;;;;4.60;4.20;;;;;;;30.54;26.85;96576.59;5094406;28;20513;-66
2021/07/03 11:12:50;;;;;;;7.60;3.80;;;;;;;30.22;27.18;96580.09;5101114;28;20507;-66
2021/07/03 11:15:18;;;;;;;5.50;4.03;;;;;;;30.06;27.91;96577.63;5098583;28;20866;-65
2021/07/03 11:17:45;;;;;;;4.93;4.43;;;;;;;30.42;27.29;96573.53;5099844;28;20505;-66
2021/07/03 11:20:22;;;;;;;4.53;4.13;;;;;;;30.82;27.29;96567.72;5093349;28;20431;-65
2021/07/03 11:22:47;;;;;;;5.40;4.43;;;;;;;30.80;27.05;96566.13;5093508;28;20521;-67
2021/07/03 11:25:26;;;;;;;5.10;4.60;;;;;;;30.58;27.29;96558.66;5093782;28;20918;-65